North Falmouth, MA (02556)

9:09 AM EST on February 27, 2015 (GMT -0500)
APRSWXNET West Falmouth MA US | Change Station
CLOSE
Current Station
Personal Weather Station
Location: West Falmouth, MA
Elevation: 62 ft
Nearby Weather Stations

Elev 62 ft 41.62 °N, 70.63 °W | Updated 39 minutes ago

Clear
Clear
20 °F
Feels Like 20 °F
N
0
Wind Variable Wind from NNE
Gusts 8.0 mph

Today
High -- | Low -- °F
--% Chance of Precip.
Yesterday
High -- | Low -- °F
Precip. -- in
6:20 AM 5:30 PM
Waxing Gibbous, 69% visible
Pressure 30.31 in
Visibility 10.0 miles
Clouds Overcast 11000 ft
Windchill 20 °F
Dew Point 9 °F
Humidity 62%
Rainfall 0.00 in
Snow Depth Not available.
UV 1 out of 12
Pollen .40 out of 12
Air Quality Not available.
Flu Activity Not available.
METAR KFMH 271355Z AUTO 35007KT 10SM OVC110 M08/M18 A3031 RMK AO2 FZRANO

More Conditions Fewer Conditions

Pressure 30.31 in
Visibility 10.0 miles
Clouds Overcast 11000 ft
Windchill 20 °F
Dew Point 9 °F
Humidity 62%
Rainfall 0.00 in
Snow Depth Not available.
UV 1 out of 12
Pollen .40 out of 12
Air Quality Not available.
Flu Activity Not available.
METAR KFMH 271355Z AUTO 35007KT 10SM OVC110 M08/M18 A3031 RMK AO2 FZRANO

More Conditions Fewer Conditions

10-Day Weather Forecast

Almanac

Astronomy

Feb. 27, 2015 Rise Set
Actual Time
Civil Twilight
Nautical Twilight
Astronomical Twilight
Moon
Length of Visible Light
Length of Day
Tomorrow will be .
, % of the Moon is Illuminated

Today's Extremes

State Highs State Lows

Community

WunderPhotos

Upload Photos

1,800,678 photos uploaded!

WunderBlogs® & News

Nearby

Air Quality

  Air Quality AQ Index Pollutant
Not available.

Snow Depth

Station Depth Elevation

Earthquake Activity

City Distance Mag. Time & Date
Minimum magnitude displayed is 2.5.

Coastal Water Temperatures

Place Temperature

Nearby Weather Stations